sensor_id;sensor_type;location;lat;lon;timestamp;temperature;humidity
792;DHT22;379;49.022;12.148;2023-02-22T00:00:22;1.90;99.90
792;DHT22;379;49.022;12.148;2023-02-22T00:02:55;1.80;99.90
792;DHT22;379;49.022;12.148;2023-02-22T00:05:25;1.80;99.90
792;DHT22;379;49.022;12.148;2023-02-22T00:07:52;1.80;99.90
792;DHT22;379;49.022;12.148;2023-02-22T00:10:22;1.80;99.90
792;DHT22;379;49.022;12.148;2023-02-22T00:12:51;1.90;99.90
792;DHT22;379;49.022;12.148;2023-02-22T00:15:20;1.90;99.90
792;DHT22;379;49.022;12.148;2023-02-22T00:17:47;1.90;99.90
792;DHT22;379;49.022;12.148;2023-02-22T00:20:15;1.80;99.90
792;DHT22;379;49.022;12.148;2023-02-22T00:22:45;1.80;99.90
792;DHT22;379;49.022;12.148;2023-02-22T00:25:13;1.80;99.90
792;DHT22;379;49.022;12.148;2023-02-22T00:27:41;1.90;99.90
792;DHT22;379;49.022;12.148;2023-02-22T00:30:13;1.80;99.90
792;DHT22;379;49.022;12.148;2023-02-22T00:32:43;1.70;99.90
792;DHT22;379;49.022;12.148;2023-02-22T00:35:10;1.60;99.90
792;DHT22;379;49.022;12.148;2023-02-22T00:37:37;1.60;99.90
792;DHT22;379;49.022;12.148;2023-02-22T00:40:07;1.60;99.90
792;DHT22;379;49.022;12.148;2023-02-22T00:42:34;1.60;99.90
792;DHT22;379;49.022;12.148;2023-02-22T00:45:01;1.60;99.90
792;DHT22;379;49.022;12.148;2023-02-22T00:47:29;1.60;99.90
792;DHT22;379;49.022;12.148;2023-02-22T00:49:56;1.70;99.90
792;DHT22;379;49.022;12.148;2023-02-22T00:52:23;1.70;99.90
792;DHT22;379;49.022;12.148;2023-02-22T00:54:50;1.70;99.90
792;DHT22;379;49.022;12.148;2023-02-22T00:57:16;1.60;99.90
792;DHT22;379;49.022;12.148;2023-02-22T00:59:44;1.50;99.90
792;DHT22;379;49.022;12.148;2023-02-22T01:02:11;1.40;99.90
792;DHT22;379;49.022;12.148;2023-02-22T01:04:39;1.30;99.90
792;DHT22;379;49.022;12.148;2023-02-22T01:07:06;1.20;99.90
792;DHT22;379;49.022;12.148;2023-02-22T01:09:32;1.10;99.90
792;DHT22;379;49.022;12.148;2023-02-22T01:12:00;1.10;99.90
792;DHT22;379;49.022;12.148;2023-02-22T01:14:28;1.10;99.90
792;DHT22;379;49.022;12.148;2023-02-22T01:16:55;1.20;99.90
792;DHT22;379;49.022;12.148;2023-02-22T01:19:22;1.30;99.90
792;DHT22;379;49.022;12.148;2023-02-22T01:21:51;1.30;99.90
792;DHT22;379;49.022;12.148;2023-02-22T01:24:19;1.30;99.90
792;DHT22;379;49.022;12.148;2023-02-22T01:26:50;1.40;99.90
792;DHT22;379;49.022;12.148;2023-02-22T01:29:17;1.40;99.90
792;DHT22;379;49.022;12.148;2023-02-22T01:31:50;1.40;99.90
792;DHT22;379;49.022;12.148;2023-02-22T01:34:18;1.40;99.90
792;DHT22;379;49.022;12.148;2023-02-22T01:36:44;1.30;99.90
792;DHT22;379;49.022;12.148;2023-02-22T01:39:12;1.30;99.90
792;DHT22;379;49.022;12.148;2023-02-22T01:41:39;1.20;99.90
792;DHT22;379;49.022;12.148;2023-02-22T01:44:20;1.20;99.90
792;DHT22;379;49.022;12.148;2023-02-22T01:46:47;1.10;99.90
792;DHT22;379;49.022;12.148;2023-02-22T01:49:15;1.10;99.90
792;DHT22;379;49.022;12.148;2023-02-22T01:51:43;1.10;99.90
792;DHT22;379;49.022;12.148;2023-02-22T01:54:15;1.10;99.90
792;DHT22;379;49.022;12.148;2023-02-22T01:56:47;1.10;99.90
792;DHT22;379;49.022;12.148;2023-02-22T01:59:16;1.00;99.90
792;DHT22;379;49.022;12.148;2023-02-22T02:01:44;1.00;99.90
792;DHT22;379;49.022;12.148;2023-02-22T02:04:16;1.10;99.90
792;DHT22;379;49.022;12.148;2023-02-22T02:06:46;1.00;99.90
792;DHT22;379;49.022;12.148;2023-02-22T02:09:19;0.90;99.90
792;DHT22;379;49.022;12.148;2023-02-22T02:11:48;0.80;99.90
792;DHT22;379;49.022;12.148;2023-02-22T02:14:16;0.70;99.90
792;DHT22;379;49.022;12.148;2023-02-22T02:16:44;0.60;99.90
792;DHT22;379;49.022;12.148;2023-02-22T02:19:17;0.70;99.90
792;DHT22;379;49.022;12.148;2023-02-22T02:22:09;0.70;99.90
792;DHT22;379;49.022;12.148;2023-02-22T02:24:50;0.70;99.90
792;DHT22;379;49.022;12.148;2023-02-22T02:27:23;0.70;99.90
792;DHT22;379;49.022;12.148;2023-02-22T02:30:18;0.70;99.90
792;DHT22;379;49.022;12.148;2023-02-22T02:32:54;0.70;99.90
792;DHT22;379;49.022;12.148;2023-02-22T02:35:29;0.60;99.90
792;DHT22;379;49.022;12.148;2023-02-22T02:38:06;0.50;99.90
792;DHT22;379;49.022;12.148;2023-02-22T02:40:38;0.30;99.90
792;DHT22;379;49.022;12.148;2023-02-22T02:43:13;0.30;99.90
792;DHT22;379;49.022;12.148;2023-02-22T02:45:45;0.20;99.90
792;DHT22;379;49.022;12.148;2023-02-22T02:48:16;0.30;99.90
792;DHT22;379;49.022;12.148;2023-02-22T02:50:47;0.40;99.90
792;DHT22;379;49.022;12.148;2023-02-22T02:53:18;0.40;99.90
792;DHT22;379;49.022;12.148;2023-02-22T02:55:46;0.40;99.90
792;DHT22;379;49.022;12.148;2023-02-22T02:58:17;0.30;99.90
792;DHT22;379;49.022;12.148;2023-02-22T03:00:44;0.20;99.90
792;DHT22;379;49.022;12.148;2023-02-22T03:03:36;0.20;99.90
792;DHT22;379;49.022;12.148;2023-02-22T03:06:46;0.20;99.90
792;DHT22;379;49.022;12.148;2023-02-22T03:09:24;0.20;99.90
792;DHT22;379;49.022;12.148;2023-02-22T03:12:02;0.20;99.90
792;DHT22;379;49.022;12.148;2023-02-22T03:14:37;0.20;99.90
792;DHT22;379;49.022;12.148;2023-02-22T03:17:13;0.10;99.90
792;DHT22;379;49.022;12.148;2023-02-22T03:19:49;0.10;99.90
792;DHT22;379;49.022;12.148;2023-02-22T03:22:20;0.20;99.90
792;DHT22;379;49.022;12.148;2023-02-22T03:24:52;0.20;99.90
792;DHT22;379;49.022;12.148;2023-02-22T03:27:26;0.10;99.90
792;DHT22;379;49.022;12.148;2023-02-22T03:29:56;0.10;99.90
792;DHT22;379;49.022;12.148;2023-02-22T03:32:27;0.00;99.90
792;DHT22;379;49.022;12.148;2023-02-22T03:34:58;0.00;99.90
792;DHT22;379;49.022;12.148;2023-02-22T03:37:30;0.00;99.90
792;DHT22;379;49.022;12.148;2023-02-22T03:39:59;-0.10;99.90
792;DHT22;379;49.022;12.148;2023-02-22T03:42:40;-0.10;99.90
792;DHT22;379;49.022;12.148;2023-02-22T03:45:10;-0.20;99.90
792;DHT22;379;49.022;12.148;2023-02-22T03:47:44;-0.20;99.90
792;DHT22;379;49.022;12.148;2023-02-22T03:50:15;-0.20;99.90
792;DHT22;379;49.022;12.148;2023-02-22T03:52:44;-0.20;99.90
792;DHT22;379;49.022;12.148;2023-02-22T03:55:13;-0.20;99.90
792;DHT22;379;49.022;12.148;2023-02-22T03:57:45;-0.20;99.90
792;DHT22;379;49.022;12.148;2023-02-22T04:00:16;-0.20;99.90
792;DHT22;379;49.022;12.148;2023-02-22T04:02:43;-0.20;99.90
792;DHT22;379;49.022;12.148;2023-02-22T04:05:10;-0.30;99.90
792;DHT22;379;49.022;12.148;2023-02-22T04:07:39;-0.40;99.90
792;DHT22;379;49.022;12.148;2023-02-22T04:10:07;-0.30;99.90
792;DHT22;379;49.022;12.148;2023-02-22T04:12:34;-0.40;99.90
792;DHT22;379;49.022;12.148;2023-02-22T04:15:01;-0.40;99.90
792;DHT22;379;49.022;12.148;2023-02-22T04:17:28;-0.40;99.90
792;DHT22;379;49.022;12.148;2023-02-22T04:19:54;-0.40;99.90
792;DHT22;379;49.022;12.148;2023-02-22T04:22:21;-0.40;99.90
792;DHT22;379;49.022;12.148;2023-02-22T04:24:49;-0.40;99.90
792;DHT22;379;49.022;12.148;2023-02-22T04:27:16;-0.50;99.90
792;DHT22;379;49.022;12.148;2023-02-22T04:29:43;-0.60;99.90
792;DHT22;379;49.022;12.148;2023-02-22T04:32:10;-0.60;99.90
792;DHT22;379;49.022;12.148;2023-02-22T04:34:36;-0.60;99.90
792;DHT22;379;49.022;12.148;2023-02-22T04:37:03;-0.60;99.90
792;DHT22;379;49.022;12.148;2023-02-22T04:39:30;-0.60;99.90
792;DHT22;379;49.022;12.148;2023-02-22T04:41:58;-0.50;99.90
792;DHT22;379;49.022;12.148;2023-02-22T04:44:25;-0.40;99.90
792;DHT22;379;49.022;12.148;2023-02-22T04:46:51;-0.30;99.90
792;DHT22;379;49.022;12.148;2023-02-22T04:49:18;-0.10;99.90
792;DHT22;379;49.022;12.148;2023-02-22T04:51:45;0.00;99.90
792;DHT22;379;49.022;12.148;2023-02-22T04:54:12;0.10;99.90
792;DHT22;379;49.022;12.148;2023-02-22T04:56:39;0.20;99.90
792;DHT22;379;49.022;12.148;2023-02-22T04:59:07;0.30;99.90
792;DHT22;379;49.022;12.148;2023-02-22T05:01:35;0.40;99.90
792;DHT22;379;49.022;12.148;2023-02-22T05:04:02;0.50;99.90
792;DHT22;379;49.022;12.148;2023-02-22T05:06:29;0.60;99.90
792;DHT22;379;49.022;12.148;2023-02-22T05:08:56;0.70;99.90
792;DHT22;379;49.022;12.148;2023-02-22T05:11:22;0.70;99.90
792;DHT22;379;49.022;12.148;2023-02-22T05:13:49;0.80;99.90
792;DHT22;379;49.022;12.148;2023-02-22T05:16:17;0.80;99.90
792;DHT22;379;49.022;12.148;2023-02-22T05:18:44;0.80;99.90
792;DHT22;379;49.022;12.148;2023-02-22T05:21:11;0.90;99.90
792;DHT22;379;49.022;12.148;2023-02-22T05:23:38;0.90;99.90
792;DHT22;379;49.022;12.148;2023-02-22T05:26:06;0.90;99.90
792;DHT22;379;49.022;12.148;2023-02-22T05:28:33;1.00;99.90
792;DHT22;379;49.022;12.148;2023-02-22T05:30:59;1.00;99.90
792;DHT22;379;49.022;12.148;2023-02-22T05:33:28;1.00;99.90
792;DHT22;379;49.022;12.148;2023-02-22T05:35:54;1.10;99.90
792;DHT22;379;49.022;12.148;2023-02-22T05:38:21;1.10;99.90
792;DHT22;379;49.022;12.148;2023-02-22T05:40:48;1.10;99.90
792;DHT22;379;49.022;12.148;2023-02-22T05:43:15;1.10;99.90
792;DHT22;379;49.022;12.148;2023-02-22T05:45:42;1.10;99.90
792;DHT22;379;49.022;12.148;2023-02-22T05:48:09;1.20;99.90
792;DHT22;379;49.022;12.148;2023-02-22T05:50:38;1.20;99.90
792;DHT22;379;49.022;12.148;2023-02-22T05:53:06;1.20;99.90
792;DHT22;379;49.022;12.148;2023-02-22T05:55:32;1.20;99.90
792;DHT22;379;49.022;12.148;2023-02-22T05:57:59;1.20;99.90
792;DHT22;379;49.022;12.148;2023-02-22T06:00:28;1.20;99.90
792;DHT22;379;49.022;12.148;2023-02-22T06:02:56;1.30;99.90
792;DHT22;379;49.022;12.148;2023-02-22T06:05:23;1.30;99.90
792;DHT22;379;49.022;12.148;2023-02-22T06:07:51;1.40;99.90
792;DHT22;379;49.022;12.148;2023-02-22T06:10:18;1.40;99.90
792;DHT22;379;49.022;12.148;2023-02-22T06:12:46;1.40;99.90
792;DHT22;379;49.022;12.148;2023-02-22T06:18:34;1.50;99.90
792;DHT22;379;49.022;12.148;2023-02-22T06:21:01;1.50;99.90
792;DHT22;379;49.022;12.148;2023-02-22T06:23:30;1.60;99.90
792;DHT22;379;49.022;12.148;2023-02-22T06:25:56;1.60;99.90
792;DHT22;379;49.022;12.148;2023-02-22T06:28:23;1.70;99.90
792;DHT22;379;49.022;12.148;2023-02-22T06:30:50;1.70;99.90
792;DHT22;379;49.022;12.148;2023-02-22T06:33:17;1.70;99.90
792;DHT22;379;49.022;12.148;2023-02-22T06:35:44;1.70;99.90
792;DHT22;379;49.022;12.148;2023-02-22T06:38:11;1.70;99.90
792;DHT22;379;49.022;12.148;2023-02-22T06:40:47;1.60;99.90
792;DHT22;379;49.022;12.148;2023-02-22T06:43:13;1.60;99.90
792;DHT22;379;49.022;12.148;2023-02-22T06:45:40;1.60;99.90
792;DHT22;379;49.022;12.148;2023-02-22T06:48:07;1.60;99.90
792;DHT22;379;49.022;12.148;2023-02-22T06:50:34;1.60;99.90
792;DHT22;379;49.022;12.148;2023-02-22T06:53:01;1.50;99.90
792;DHT22;379;49.022;12.148;2023-02-22T06:55:29;1.60;99.90
792;DHT22;379;49.022;12.148;2023-02-22T06:57:59;1.50;99.90
792;DHT22;379;49.022;12.148;2023-02-22T07:00:27;1.50;99.90
792;DHT22;379;49.022;12.148;2023-02-22T07:02:54;1.50;99.90
792;DHT22;379;49.022;12.148;2023-02-22T07:05:22;1.50;99.90
792;DHT22;379;49.022;12.148;2023-02-22T07:07:50;1.50;99.90
792;DHT22;379;49.022;12.148;2023-02-22T07:10:20;1.50;99.90
792;DHT22;379;49.022;12.148;2023-02-22T07:12:47;1.60;99.90
792;DHT22;379;49.022;12.148;2023-02-22T07:15:18;1.70;99.90
792;DHT22;379;49.022;12.148;2023-02-22T07:17:47;1.80;99.90
792;DHT22;379;49.022;12.148;2023-02-22T07:20:13;1.90;99.90
792;DHT22;379;49.022;12.148;2023-02-22T07:22:40;1.90;99.90
792;DHT22;379;49.022;12.148;2023-02-22T07:25:08;2.00;99.90
792;DHT22;379;49.022;12.148;2023-02-22T07:27:35;2.10;99.90
792;DHT22;379;49.022;12.148;2023-02-22T07:30:03;2.20;99.90
792;DHT22;379;49.022;12.148;2023-02-22T07:32:31;2.30;99.90
792;DHT22;379;49.022;12.148;2023-02-22T07:34:58;2.30;99.90
792;DHT22;379;49.022;12.148;2023-02-22T07:37:27;2.30;99.90
792;DHT22;379;49.022;12.148;2023-02-22T07:39:53;2.20;99.90
792;DHT22;379;49.022;12.148;2023-02-22T07:42:20;2.20;99.90
792;DHT22;379;49.022;12.148;2023-02-22T07:44:48;2.20;99.90
792;DHT22;379;49.022;12.148;2023-02-22T07:47:14;2.20;99.90
792;DHT22;379;49.022;12.148;2023-02-22T07:49:42;2.30;99.90
792;DHT22;379;49.022;12.148;2023-02-22T07:52:09;2.50;99.90
792;DHT22;379;49.022;12.148;2023-02-22T07:54:37;2.70;99.90
792;DHT22;379;49.022;12.148;2023-02-22T07:57:03;2.80;99.90
792;DHT22;379;49.022;12.148;2023-02-22T07:59:30;3.00;99.90
792;DHT22;379;49.022;12.148;2023-02-22T08:01:58;3.20;99.90
792;DHT22;379;49.022;12.148;2023-02-22T08:04:25;3.40;99.90
792;DHT22;379;49.022;12.148;2023-02-22T08:06:53;3.60;99.90
792;DHT22;379;49.022;12.148;2023-02-22T08:09:19;3.80;99.90
792;DHT22;379;49.022;12.148;2023-02-22T08:11:48;4.00;99.90
792;DHT22;379;49.022;12.148;2023-02-22T08:14:15;4.10;99.90
792;DHT22;379;49.022;12.148;2023-02-22T08:16:42;4.20;99.90
792;DHT22;379;49.022;12.148;2023-02-22T08:19:08;4.20;99.90
792;DHT22;379;49.022;12.148;2023-02-22T08:21:35;4.30;99.90
792;DHT22;379;49.022;12.148;2023-02-22T08:24:04;4.30;99.90
792;DHT22;379;49.022;12.148;2023-02-22T08:26:31;4.50;99.90
792;DHT22;379;49.022;12.148;2023-02-22T08:28:57;4.60;99.90
792;DHT22;379;49.022;12.148;2023-02-22T08:31:24;4.90;99.90
792;DHT22;379;49.022;12.148;2023-02-22T08:33:51;5.20;99.90
792;DHT22;379;49.022;12.148;2023-02-22T08:36:17;5.40;99.90
792;DHT22;379;49.022;12.148;2023-02-22T08:38:44;5.60;99.90
792;DHT22;379;49.022;12.148;2023-02-22T08:41:12;5.80;99.90
792;DHT22;379;49.022;12.148;2023-02-22T08:43:39;5.90;99.90
792;DHT22;379;49.022;12.148;2023-02-22T08:46:06;6.00;99.90
792;DHT22;379;49.022;12.148;2023-02-22T08:48:32;6.20;99.90
792;DHT22;379;49.022;12.148;2023-02-22T08:50:59;6.30;99.90
792;DHT22;379;49.022;12.148;2023-02-22T08:53:26;6.40;99.90
792;DHT22;379;49.022;12.148;2023-02-22T08:55:53;6.60;99.90
792;DHT22;379;49.022;12.148;2023-02-22T08:58:21;6.60;99.90
792;DHT22;379;49.022;12.148;2023-02-22T09:00:48;6.70;99.90
792;DHT22;379;49.022;12.148;2023-02-22T09:03:15;6.80;99.90
792;DHT22;379;49.022;12.148;2023-02-22T09:05:43;6.90;99.90
792;DHT22;379;49.022;12.148;2023-02-22T09:08:09;7.00;99.90
792;DHT22;379;49.022;12.148;2023-02-22T09:10:36;7.10;99.90
792;DHT22;379;49.022;12.148;2023-02-22T09:13:03;7.10;99.90
792;DHT22;379;49.022;12.148;2023-02-22T09:15:32;7.10;99.90
792;DHT22;379;49.022;12.148;2023-02-22T09:18:01;7.10;99.90
792;DHT22;379;49.022;12.148;2023-02-22T09:20:29;7.20;99.90
792;DHT22;379;49.022;12.148;2023-02-22T09:22:56;7.20;99.90
792;DHT22;379;49.022;12.148;2023-02-22T09:25:23;7.20;99.90
792;DHT22;379;49.022;12.148;2023-02-22T09:27:52;7.30;99.90
792;DHT22;379;49.022;12.148;2023-02-22T09:30:23;7.50;99.90
792;DHT22;379;49.022;12.148;2023-02-22T09:32:53;7.60;99.90
792;DHT22;379;49.022;12.148;2023-02-22T09:35:21;7.80;99.90
792;DHT22;379;49.022;12.148;2023-02-22T09:37:52;8.00;99.90
792;DHT22;379;49.022;12.148;2023-02-22T09:40:19;8.10;99.90
792;DHT22;379;49.022;12.148;2023-02-22T09:43:03;8.10;99.90
792;DHT22;379;49.022;12.148;2023-02-22T09:45:33;8.20;99.90
792;DHT22;379;49.022;12.148;2023-02-22T09:48:06;8.30;99.90
792;DHT22;379;49.022;12.148;2023-02-22T09:50:36;8.40;99.90
792;DHT22;379;49.022;12.148;2023-02-22T09:53:06;8.50;99.90
792;DHT22;379;49.022;12.148;2023-02-22T09:55:38;8.60;99.90
792;DHT22;379;49.022;12.148;2023-02-22T09:58:13;8.70;99.90
792;DHT22;379;49.022;12.148;2023-02-22T10:00:45;8.80;99.90
792;DHT22;379;49.022;12.148;2023-02-22T10:03:22;8.80;99.90
792;DHT22;379;49.022;12.148;2023-02-22T10:05:54;8.90;99.90
792;DHT22;379;49.022;12.148;2023-02-22T10:08:26;9.00;99.90
792;DHT22;379;49.022;12.148;2023-02-22T10:11:01;9.10;99.90
792;DHT22;379;49.022;12.148;2023-02-22T10:13:35;9.10;99.90
792;DHT22;379;49.022;12.148;2023-02-22T10:16:10;9.20;99.90
792;DHT22;379;49.022;12.148;2023-02-22T10:21:49;9.30;99.90
792;DHT22;379;49.022;12.148;2023-02-22T10:24:31;9.40;99.90
792;DHT22;379;49.022;12.148;2023-02-22T10:27:04;9.50;99.90
792;DHT22;379;49.022;12.148;2023-02-22T10:29:35;9.60;99.90
792;DHT22;379;49.022;12.148;2023-02-22T10:32:07;9.60;99.90
792;DHT22;379;49.022;12.148;2023-02-22T10:34:42;9.70;99.90
792;DHT22;379;49.022;12.148;2023-02-22T10:37:18;9.70;99.90
792;DHT22;379;49.022;12.148;2023-02-22T10:39:49;9.70;99.90
792;DHT22;379;49.022;12.148;2023-02-22T10:42:21;9.80;99.90
792;DHT22;379;49.022;12.148;2023-02-22T10:44:50;9.80;99.90
792;DHT22;379;49.022;12.148;2023-02-22T10:47:17;9.90;99.90
792;DHT22;379;49.022;12.148;2023-02-22T10:49:49;9.90;99.90
792;DHT22;379;49.022;12.148;2023-02-22T10:52:21;9.80;99.90
792;DHT22;379;49.022;12.148;2023-02-22T10:54:50;9.90;99.90
792;DHT22;379;49.022;12.148;2023-02-22T10:57:20;9.90;99.90
792;DHT22;379;49.022;12.148;2023-02-22T10:59:47;10.00;99.90
792;DHT22;379;49.022;12.148;2023-02-22T11:02:19;10.10;99.90
792;DHT22;379;49.022;12.148;2023-02-22T11:04:49;10.10;99.90
792;DHT22;379;49.022;12.148;2023-02-22T11:07:20;10.20;99.90
792;DHT22;379;49.022;12.148;2023-02-22T11:09:50;10.20;99.90
792;DHT22;379;49.022;12.148;2023-02-22T11:12:20;10.30;99.90
792;DHT22;379;49.022;12.148;2023-02-22T11:14:50;10.40;99.90
792;DHT22;379;49.022;12.148;2023-02-22T11:17:23;10.50;99.90
792;DHT22;379;49.022;12.148;2023-02-22T11:19:54;10.70;99.90
792;DHT22;379;49.022;12.148;2023-02-22T11:22:24;10.80;99.90
792;DHT22;379;49.022;12.148;2023-02-22T11:24:55;11.10;99.90
792;DHT22;379;49.022;12.148;2023-02-22T11:27:29;11.30;99.90
792;DHT22;379;49.022;12.148;2023-02-22T11:30:07;11.50;99.90
792;DHT22;379;49.022;12.148;2023-02-22T11:32:42;11.70;99.90
792;DHT22;379;49.022;12.148;2023-02-22T11:35:29;11.90;99.90
792;DHT22;379;49.022;12.148;2023-02-22T11:38:15;12.10;99.90
792;DHT22;379;49.022;12.148;2023-02-22T11:40:42;12.20;99.90
792;DHT22;379;49.022;12.148;2023-02-22T11:43:14;12.20;99.90
792;DHT22;379;49.022;12.148;2023-02-22T11:45:56;12.20;99.90
792;DHT22;379;49.022;12.148;2023-02-22T11:48:26;12.20;99.50
792;DHT22;379;49.022;12.148;2023-02-22T11:51:05;12.30;99.10
792;DHT22;379;49.022;12.148;2023-02-22T11:53:55;12.30;99.30
792;DHT22;379;49.022;12.148;2023-02-22T11:56:27;12.30;99.00
792;DHT22;379;49.022;12.148;2023-02-22T11:58:59;12.20;98.30
792;DHT22;379;49.022;12.148;2023-02-22T12:01:33;12.20;98.50
792;DHT22;379;49.022;12.148;2023-02-22T12:04:38;12.20;98.60
792;DHT22;379;49.022;12.148;2023-02-22T12:07:31;12.30;98.80
792;DHT22;379;49.022;12.148;2023-02-22T12:10:12;12.30;97.50
792;DHT22;379;49.022;12.148;2023-02-22T12:12:53;12.20;97.00
792;DHT22;379;49.022;12.148;2023-02-22T12:15:28;12.00;97.20
792;DHT22;379;49.022;12.148;2023-02-22T12:18:00;11.90;97.50
792;DHT22;379;49.022;12.148;2023-02-22T12:20:35;11.90;97.70
792;DHT22;379;49.022;12.148;2023-02-22T12:23:14;11.90;97.20
792;DHT22;379;49.022;12.148;2023-02-22T12:25:54;11.90;97.30
792;DHT22;379;49.022;12.148;2023-02-22T12:28:27;12.00;97.40
792;DHT22;379;49.022;12.148;2023-02-22T12:31:05;12.00;97.60
792;DHT22;379;49.022;12.148;2023-02-22T12:33:41;12.00;97.50
792;DHT22;379;49.022;12.148;2023-02-22T12:36:13;12.10;97.10
792;DHT22;379;49.022;12.148;2023-02-22T12:38:44;12.10;96.50
792;DHT22;379;49.022;12.148;2023-02-22T12:41:17;12.20;96.10
792;DHT22;379;49.022;12.148;2023-02-22T12:43:48;12.20;95.80
792;DHT22;379;49.022;12.148;2023-02-22T12:46:20;12.30;95.80
792;DHT22;379;49.022;12.148;2023-02-22T12:48:52;12.30;94.90
792;DHT22;379;49.022;12.148;2023-02-22T12:51:28;12.30;95.20
792;DHT22;379;49.022;12.148;2023-02-22T12:54:05;12.30;95.00
792;DHT22;379;49.022;12.148;2023-02-22T12:56:41;12.30;94.70
792;DHT22;379;49.022;12.148;2023-02-22T12:59:14;12.20;94.60
792;DHT22;379;49.022;12.148;2023-02-22T13:01:49;12.20;94.60
792;DHT22;379;49.022;12.148;2023-02-22T13:04:16;12.10;94.60
792;DHT22;379;49.022;12.148;2023-02-22T13:06:50;12.00;94.90
792;DHT22;379;49.022;12.148;2023-02-22T13:09:36;12.00;95.10
792;DHT22;379;49.022;12.148;2023-02-22T13:12:12;12.00;95.30
792;DHT22;379;49.022;12.148;2023-02-22T13:14:52;12.00;95.50
792;DHT22;379;49.022;12.148;2023-02-22T13:17:27;12.10;95.20
792;DHT22;379;49.022;12.148;2023-02-22T13:19:59;12.20;95.00
792;DHT22;379;49.022;12.148;2023-02-22T13:22:33;12.30;94.90
792;DHT22;379;49.022;12.148;2023-02-22T13:25:07;12.40;94.60
792;DHT22;379;49.022;12.148;2023-02-22T13:27:39;12.50;94.50
792;DHT22;379;49.022;12.148;2023-02-22T13:30:17;12.50;94.50
792;DHT22;379;49.022;12.148;2023-02-22T13:33:14;12.50;93.90
792;DHT22;379;49.022;12.148;2023-02-22T13:35:55;12.60;93.50
792;DHT22;379;49.022;12.148;2023-02-22T13:38:53;12.70;93.30
792;DHT22;379;49.022;12.148;2023-02-22T13:50:45;13.00;93.30
792;DHT22;379;49.022;12.148;2023-02-22T13:53:19;13.10;92.20
792;DHT22;379;49.022;12.148;2023-02-22T13:55:52;13.20;91.90
792;DHT22;379;49.022;12.148;2023-02-22T13:58:22;13.20;92.20
792;DHT22;379;49.022;12.148;2023-02-22T14:00:51;13.20;92.10
792;DHT22;379;49.022;12.148;2023-02-22T14:03:36;13.20;92.20
792;DHT22;379;49.022;12.148;2023-02-22T14:06:09;13.20;92.00
792;DHT22;379;49.022;12.148;2023-02-22T14:08:43;13.20;92.10
792;DHT22;379;49.022;12.148;2023-02-22T14:14:19;13.20;91.90
792;DHT22;379;49.022;12.148;2023-02-22T14:17:20;13.30;92.20
792;DHT22;379;49.022;12.148;2023-02-22T14:20:22;13.40;92.40
792;DHT22;379;49.022;12.148;2023-02-22T14:22:54;13.50;92.30
792;DHT22;379;49.022;12.148;2023-02-22T14:25:31;13.70;92.30
792;DHT22;379;49.022;12.148;2023-02-22T14:27:59;13.70;91.90
792;DHT22;379;49.022;12.148;2023-02-22T14:30:31;13.80;92.10
792;DHT22;379;49.022;12.148;2023-02-22T14:32:59;13.80;92.10
792;DHT22;379;49.022;12.148;2023-02-22T14:35:31;13.80;92.00
792;DHT22;379;49.022;12.148;2023-02-22T14:38:04;13.80;91.90
792;DHT22;379;49.022;12.148;2023-02-22T14:40:34;13.80;91.90
792;DHT22;379;49.022;12.148;2023-02-22T14:43:05;13.90;92.10
792;DHT22;379;49.022;12.148;2023-02-22T14:45:38;13.90;92.10
792;DHT22;379;49.022;12.148;2023-02-22T14:48:21;14.00;91.70
792;DHT22;379;49.022;12.148;2023-02-22T14:50:52;14.10;91.90
792;DHT22;379;49.022;12.148;2023-02-22T14:53:25;14.10;91.80
792;DHT22;379;49.022;12.148;2023-02-22T14:55:57;14.20;91.20
792;DHT22;379;49.022;12.148;2023-02-22T14:58:31;14.30;91.40
792;DHT22;379;49.022;12.148;2023-02-22T15:01:15;14.30;91.40
792;DHT22;379;49.022;12.148;2023-02-22T15:03:47;14.40;90.70
792;DHT22;379;49.022;12.148;2023-02-22T15:06:16;14.40;90.70
792;DHT22;379;49.022;12.148;2023-02-22T15:08:45;14.40;90.70
792;DHT22;379;49.022;12.148;2023-02-22T15:11:20;14.40;90.80
792;DHT22;379;49.022;12.148;2023-02-22T15:13:50;14.30;90.80
792;DHT22;379;49.022;12.148;2023-02-22T15:16:20;14.30;90.70
792;DHT22;379;49.022;12.148;2023-02-22T15:18:50;14.20;90.70
792;DHT22;379;49.022;12.148;2023-02-22T15:21:19;14.10;90.20
792;DHT22;379;49.022;12.148;2023-02-22T15:23:48;14.00;90.10
792;DHT22;379;49.022;12.148;2023-02-22T15:26:18;13.80;89.60
792;DHT22;379;49.022;12.148;2023-02-22T15:28:46;13.70;89.30
792;DHT22;379;49.022;12.148;2023-02-22T15:31:14;13.50;90.00
792;DHT22;379;49.022;12.148;2023-02-22T15:33:43;13.40;89.80
792;DHT22;379;49.022;12.148;2023-02-22T15:36:14;13.20;89.60
792;DHT22;379;49.022;12.148;2023-02-22T15:38:47;13.10;90.20
792;DHT22;379;49.022;12.148;2023-02-22T15:41:22;12.90;90.40
792;DHT22;379;49.022;12.148;2023-02-22T15:44:01;12.80;90.70
792;DHT22;379;49.022;12.148;2023-02-22T15:46:29;12.60;90.80
792;DHT22;379;49.022;12.148;2023-02-22T15:49:17;12.50;90.90
792;DHT22;379;49.022;12.148;2023-02-22T15:51:45;12.40;91.10
792;DHT22;379;49.022;12.148;2023-02-22T15:54:16;12.30;91.20
792;DHT22;379;49.022;12.148;2023-02-22T15:56:47;12.20;91.40
792;DHT22;379;49.022;12.148;2023-02-22T15:59:17;12.10;91.60
792;DHT22;379;49.022;12.148;2023-02-22T16:01:45;12.00;91.70
792;DHT22;379;49.022;12.148;2023-02-22T16:04:20;11.90;91.80
792;DHT22;379;49.022;12.148;2023-02-22T16:06:49;11.80;92.10
792;DHT22;379;49.022;12.148;2023-02-22T16:09:18;11.70;92.50
792;DHT22;379;49.022;12.148;2023-02-22T16:11:48;11.50;92.80
792;DHT22;379;49.022;12.148;2023-02-22T16:14:25;11.40;93.00
792;DHT22;379;49.022;12.148;2023-02-22T16:17:11;11.40;93.20
792;DHT22;379;49.022;12.148;2023-02-22T16:19:40;11.20;93.30
792;DHT22;379;49.022;12.148;2023-02-22T16:22:23;11.20;93.50
792;DHT22;379;49.022;12.148;2023-02-22T16:24:52;11.10;93.70
792;DHT22;379;49.022;12.148;2023-02-22T16:27:20;11.10;93.80
792;DHT22;379;49.022;12.148;2023-02-22T16:30:06;11.10;93.80
792;DHT22;379;49.022;12.148;2023-02-22T16:32:33;11.10;93.80
792;DHT22;379;49.022;12.148;2023-02-22T16:35:01;11.20;93.90
792;DHT22;379;49.022;12.148;2023-02-22T16:37:28;11.20;93.70
792;DHT22;379;49.022;12.148;2023-02-22T16:39:55;11.20;93.70
792;DHT22;379;49.022;12.148;2023-02-22T16:42:22;11.10;93.60
792;DHT22;379;49.022;12.148;2023-02-22T16:44:50;11.00;93.80
792;DHT22;379;49.022;12.148;2023-02-22T16:47:18;10.90;93.90
792;DHT22;379;49.022;12.148;2023-02-22T16:49:48;10.80;94.00
792;DHT22;379;49.022;12.148;2023-02-22T16:52:18;10.70;94.30
792;DHT22;379;49.022;12.148;2023-02-22T16:54:46;10.60;94.50
792;DHT22;379;49.022;12.148;2023-02-22T16:57:16;10.60;94.80
792;DHT22;379;49.022;12.148;2023-02-22T16:59:44;10.50;94.90
792;DHT22;379;49.022;12.148;2023-02-22T17:02:13;10.30;95.20
792;DHT22;379;49.022;12.148;2023-02-22T17:04:40;10.30;95.70
792;DHT22;379;49.022;12.148;2023-02-22T17:07:08;10.30;96.00
792;DHT22;379;49.022;12.148;2023-02-22T17:09:36;10.30;96.30